Saujil, Argentina
Current Conditions -  °F | °C
As of 9:00 PM on Friday 21 Nov 2014 (Local Time) from SANT Reporting Station
Clear Clear  
Wind Chill: 19°   Ceiling: Unl
Heat Index: 19°   Visibility: 6mi
Dew Point: 16°   Wind: 5mph
Humidity: 83%   Direction: 320°NW
Pressure: 29.94"   Gusts: NA
Location:  28.18°S, 66.23°W
Report Text: SANT 220000Z 32004KT CAVOK 19/16 Q1014
Loading
Personal Weather Stations






























Interactive Weather Map New forecast layout! Learn more

10-Day Weather Forecast

Advertisements
Track Severe Weather on mobile